sensor_id;sensor_type;location;lat;lon;timestamp;P1;durP1;ratioP1;P2;durP2;ratioP2
4011;SDS011;2020;48.682;9.024;2023-03-12T00:00:17;6.10;;;5.60;;
4011;SDS011;2020;48.682;9.024;2023-03-12T00:02:44;6.63;;;6.13;;
4011;SDS011;2020;48.682;9.024;2023-03-12T00:05:09;9.60;;;6.33;;
4011;SDS011;2020;48.682;9.024;2023-03-12T00:07:34;6.87;;;6.27;;
4011;SDS011;2020;48.682;9.024;2023-03-12T00:10:00;7.30;;;6.57;;
4011;SDS011;2020;48.682;9.024;2023-03-12T00:12:26;13.20;;;7.50;;
4011;SDS011;2020;48.682;9.024;2023-03-12T00:14:51;12.77;;;7.10;;
4011;SDS011;2020;48.682;9.024;2023-03-12T00:17:16;10.37;;;7.60;;
4011;SDS011;2020;48.682;9.024;2023-03-12T00:19:42;9.67;;;7.97;;
4011;SDS011;2020;48.682;9.024;2023-03-12T00:22:09;10.30;;;7.33;;
4011;SDS011;2020;48.682;9.024;2023-03-12T00:24:34;8.60;;;7.70;;
4011;SDS011;2020;48.682;9.024;2023-03-12T00:26:59;12.77;;;7.23;;
4011;SDS011;2020;48.682;9.024;2023-03-12T00:29:24;8.80;;;7.10;;
4011;SDS011;2020;48.682;9.024;2023-03-12T00:31:50;8.63;;;7.77;;
4011;SDS011;2020;48.682;9.024;2023-03-12T00:34:15;12.07;;;7.10;;
4011;SDS011;2020;48.682;9.024;2023-03-12T00:36:40;9.53;;;7.47;;
4011;SDS011;2020;48.682;9.024;2023-03-12T00:39:06;10.73;;;8.70;;
4011;SDS011;2020;48.682;9.024;2023-03-12T00:41:31;7.90;;;7.20;;
4011;SDS011;2020;48.682;9.024;2023-03-12T00:43:57;11.20;;;7.37;;
4011;SDS011;2020;48.682;9.024;2023-03-12T00:46:22;8.27;;;7.47;;
4011;SDS011;2020;48.682;9.024;2023-03-12T00:48:48;7.93;;;7.30;;
4011;SDS011;2020;48.682;9.024;2023-03-12T00:51:13;10.80;;;6.80;;
4011;SDS011;2020;48.682;9.024;2023-03-12T00:53:39;7.70;;;6.90;;
4011;SDS011;2020;48.682;9.024;2023-03-12T00:56:04;8.83;;;7.90;;
4011;SDS011;2020;48.682;9.024;2023-03-12T00:58:30;6.80;;;6.17;;
4011;SDS011;2020;48.682;9.024;2023-03-12T01:00:55;8.10;;;7.37;;
4011;SDS011;2020;48.682;9.024;2023-03-12T01:03:21;8.90;;;8.00;;
4011;SDS011;2020;48.682;9.024;2023-03-12T01:05:46;9.43;;;7.37;;
4011;SDS011;2020;48.682;9.024;2023-03-12T01:08:17;12.83;;;7.10;;
4011;SDS011;2020;48.682;9.024;2023-03-12T01:10:43;6.60;;;6.00;;
4011;SDS011;2020;48.682;9.024;2023-03-12T01:13:09;7.00;;;6.50;;
4011;SDS011;2020;48.682;9.024;2023-03-12T01:15:34;7.37;;;6.57;;
4011;SDS011;2020;48.682;9.024;2023-03-12T01:17:59;9.27;;;7.70;;
4011;SDS011;2020;48.682;9.024;2023-03-12T01:20:24;8.40;;;6.43;;
4011;SDS011;2020;48.682;9.024;2023-03-12T01:22:50;7.37;;;6.53;;
4011;SDS011;2020;48.682;9.024;2023-03-12T01:25:15;8.63;;;6.33;;
4011;SDS011;2020;48.682;9.024;2023-03-12T01:27:40;7.03;;;6.33;;
4011;SDS011;2020;48.682;9.024;2023-03-12T01:30:06;7.00;;;6.50;;
4011;SDS011;2020;48.682;9.024;2023-03-12T01:32:32;7.07;;;6.50;;
4011;SDS011;2020;48.682;9.024;2023-03-12T01:34:57;9.37;;;7.13;;
4011;SDS011;2020;48.682;9.024;2023-03-12T01:37:23;8.80;;;6.43;;
4011;SDS011;2020;48.682;9.024;2023-03-12T01:39:48;7.33;;;6.80;;
4011;SDS011;2020;48.682;9.024;2023-03-12T01:42:14;11.17;;;7.13;;
4011;SDS011;2020;48.682;9.024;2023-03-12T01:44:55;10.23;;;6.23;;
4011;SDS011;2020;48.682;9.024;2023-03-12T01:47:23;7.37;;;6.67;;
4011;SDS011;2020;48.682;9.024;2023-03-12T01:49:51;8.90;;;7.50;;
4011;SDS011;2020;48.682;9.024;2023-03-12T01:52:21;8.73;;;7.80;;
4011;SDS011;2020;48.682;9.024;2023-03-12T01:54:53;10.57;;;8.47;;
4011;SDS011;2020;48.682;9.024;2023-03-12T01:57:22;7.80;;;6.90;;
4011;SDS011;2020;48.682;9.024;2023-03-12T02:00:02;9.63;;;7.87;;
4011;SDS011;2020;48.682;9.024;2023-03-12T02:02:32;7.10;;;6.50;;
4011;SDS011;2020;48.682;9.024;2023-03-12T02:07:49;8.33;;;6.57;;
4011;SDS011;2020;48.682;9.024;2023-03-12T02:10:14;9.10;;;6.73;;
4011;SDS011;2020;48.682;9.024;2023-03-12T02:12:40;8.97;;;7.00;;
4011;SDS011;2020;48.682;9.024;2023-03-12T02:15:06;8.10;;;7.27;;
4011;SDS011;2020;48.682;9.024;2023-03-12T02:17:31;8.70;;;7.80;;
4011;SDS011;2020;48.682;9.024;2023-03-12T02:20:09;9.80;;;7.10;;
4011;SDS011;2020;48.682;9.024;2023-03-12T02:22:41;7.97;;;7.37;;
4011;SDS011;2020;48.682;9.024;2023-03-12T02:25:16;9.10;;;7.77;;
4011;SDS011;2020;48.682;9.024;2023-03-12T02:27:48;11.50;;;7.50;;
4011;SDS011;2020;48.682;9.024;2023-03-12T02:30:13;9.83;;;7.37;;
4011;SDS011;2020;48.682;9.024;2023-03-12T02:32:41;8.20;;;7.27;;
4011;SDS011;2020;48.682;9.024;2023-03-12T02:35:09;7.67;;;7.13;;
4011;SDS011;2020;48.682;9.024;2023-03-12T02:37:35;10.37;;;7.93;;
4011;SDS011;2020;48.682;9.024;2023-03-12T02:40:08;15.97;;;8.20;;
4011;SDS011;2020;48.682;9.024;2023-03-12T02:42:39;10.60;;;8.00;;
4011;SDS011;2020;48.682;9.024;2023-03-12T02:45:04;10.87;;;7.87;;
4011;SDS011;2020;48.682;9.024;2023-03-12T02:47:30;8.73;;;7.80;;
4011;SDS011;2020;48.682;9.024;2023-03-12T02:49:55;8.00;;;7.23;;
4011;SDS011;2020;48.682;9.024;2023-03-12T02:52:20;15.20;;;8.33;;
4011;SDS011;2020;48.682;9.024;2023-03-12T02:54:46;8.73;;;7.83;;
4011;SDS011;2020;48.682;9.024;2023-03-12T02:57:11;8.67;;;7.00;;
4011;SDS011;2020;48.682;9.024;2023-03-12T02:59:36;12.40;;;7.10;;
4011;SDS011;2020;48.682;9.024;2023-03-12T03:02:01;6.67;;;6.07;;
4011;SDS011;2020;48.682;9.024;2023-03-12T03:04:28;8.17;;;6.37;;
4011;SDS011;2020;48.682;9.024;2023-03-12T03:06:54;7.63;;;6.83;;
4011;SDS011;2020;48.682;9.024;2023-03-12T03:09:20;7.03;;;6.30;;
4011;SDS011;2020;48.682;9.024;2023-03-12T03:11:46;6.37;;;5.80;;
4011;SDS011;2020;48.682;9.024;2023-03-12T03:14:12;6.47;;;4.87;;
4011;SDS011;2020;48.682;9.024;2023-03-12T03:16:37;6.20;;;4.93;;
4011;SDS011;2020;48.682;9.024;2023-03-12T03:19:03;6.27;;;5.70;;
4011;SDS011;2020;48.682;9.024;2023-03-12T03:21:28;5.73;;;5.20;;
4011;SDS011;2020;48.682;9.024;2023-03-12T03:23:54;7.93;;;4.80;;
4011;SDS011;2020;48.682;9.024;2023-03-12T03:26:20;5.40;;;4.00;;
4011;SDS011;2020;48.682;9.024;2023-03-12T03:28:46;3.77;;;3.47;;
4011;SDS011;2020;48.682;9.024;2023-03-12T03:31:12;6.67;;;3.13;;
4011;SDS011;2020;48.682;9.024;2023-03-12T03:33:37;4.17;;;3.70;;
4011;SDS011;2020;48.682;9.024;2023-03-12T03:36:04;3.70;;;3.00;;
4011;SDS011;2020;48.682;9.024;2023-03-12T03:38:31;2.70;;;2.60;;
4011;SDS011;2020;48.682;9.024;2023-03-12T03:40:58;5.00;;;3.23;;
4011;SDS011;2020;48.682;9.024;2023-03-12T03:43:23;2.80;;;2.60;;
4011;SDS011;2020;48.682;9.024;2023-03-12T03:45:59;2.77;;;2.57;;
4011;SDS011;2020;48.682;9.024;2023-03-12T03:48:26;4.53;;;3.43;;
4011;SDS011;2020;48.682;9.024;2023-03-12T03:50:52;3.30;;;3.00;;
4011;SDS011;2020;48.682;9.024;2023-03-12T03:53:17;3.07;;;2.87;;
4011;SDS011;2020;48.682;9.024;2023-03-12T03:55:44;3.10;;;3.00;;
4011;SDS011;2020;48.682;9.024;2023-03-12T03:58:09;3.13;;;3.03;;
4011;SDS011;2020;48.682;9.024;2023-03-12T04:00:35;3.10;;;2.90;;
4011;SDS011;2020;48.682;9.024;2023-03-12T04:03:00;2.73;;;2.63;;
4011;SDS011;2020;48.682;9.024;2023-03-12T04:05:25;3.03;;;2.70;;
4011;SDS011;2020;48.682;9.024;2023-03-12T04:07:51;3.03;;;2.83;;
4011;SDS011;2020;48.682;9.024;2023-03-12T04:10:20;3.93;;;3.33;;
4011;SDS011;2020;48.682;9.024;2023-03-12T04:12:48;3.87;;;3.67;;
4011;SDS011;2020;48.682;9.024;2023-03-12T04:15:13;3.60;;;3.40;;
4011;SDS011;2020;48.682;9.024;2023-03-12T04:17:38;3.70;;;3.47;;
4011;SDS011;2020;48.682;9.024;2023-03-12T04:20:04;3.63;;;3.20;;
4011;SDS011;2020;48.682;9.024;2023-03-12T04:22:32;5.63;;;4.20;;
4011;SDS011;2020;48.682;9.024;2023-03-12T04:24:57;3.07;;;2.97;;
4011;SDS011;2020;48.682;9.024;2023-03-12T04:27:22;3.87;;;3.67;;
4011;SDS011;2020;48.682;9.024;2023-03-12T04:29:47;2.90;;;2.80;;
4011;SDS011;2020;48.682;9.024;2023-03-12T04:32:13;4.20;;;3.90;;
4011;SDS011;2020;48.682;9.024;2023-03-12T04:34:38;7.13;;;3.70;;
4011;SDS011;2020;48.682;9.024;2023-03-12T04:37:03;4.97;;;3.23;;
4011;SDS011;2020;48.682;9.024;2023-03-12T04:39:29;4.40;;;4.07;;
4011;SDS011;2020;48.682;9.024;2023-03-12T04:41:54;3.43;;;3.23;;
4011;SDS011;2020;48.682;9.024;2023-03-12T04:44:19;5.23;;;4.70;;
4011;SDS011;2020;48.682;9.024;2023-03-12T04:46:44;4.90;;;3.90;;
4011;SDS011;2020;48.682;9.024;2023-03-12T04:49:10;3.47;;;3.30;;
4011;SDS011;2020;48.682;9.024;2023-03-12T04:51:35;3.43;;;2.90;;
4011;SDS011;2020;48.682;9.024;2023-03-12T04:54:00;7.33;;;3.83;;
4011;SDS011;2020;48.682;9.024;2023-03-12T04:56:26;4.03;;;3.83;;
4011;SDS011;2020;48.682;9.024;2023-03-12T04:58:51;4.13;;;3.90;;
4011;SDS011;2020;48.682;9.024;2023-03-12T05:01:37;8.00;;;3.97;;
4011;SDS011;2020;48.682;9.024;2023-03-12T05:04:02;4.43;;;3.90;;
4011;SDS011;2020;48.682;9.024;2023-03-12T05:06:29;3.93;;;3.27;;
4011;SDS011;2020;48.682;9.024;2023-03-12T05:08:54;7.03;;;4.03;;
4011;SDS011;2020;48.682;9.024;2023-03-12T05:11:20;4.80;;;4.00;;
4011;SDS011;2020;48.682;9.024;2023-03-12T05:13:46;3.80;;;3.50;;
4011;SDS011;2020;48.682;9.024;2023-03-12T05:16:12;3.17;;;2.90;;
4011;SDS011;2020;48.682;9.024;2023-03-12T05:18:38;4.70;;;3.40;;
4011;SDS011;2020;48.682;9.024;2023-03-12T05:21:05;3.90;;;3.60;;
4011;SDS011;2020;48.682;9.024;2023-03-12T05:23:33;3.30;;;2.80;;
4011;SDS011;2020;48.682;9.024;2023-03-12T05:25:59;4.30;;;3.90;;
4011;SDS011;2020;48.682;9.024;2023-03-12T05:28:25;3.30;;;3.10;;
4011;SDS011;2020;48.682;9.024;2023-03-12T05:30:54;3.63;;;3.50;;
4011;SDS011;2020;48.682;9.024;2023-03-12T05:33:24;4.13;;;3.83;;
4011;SDS011;2020;48.682;9.024;2023-03-12T05:35:50;4.37;;;3.77;;
4011;SDS011;2020;48.682;9.024;2023-03-12T05:38:16;4.10;;;3.70;;
4011;SDS011;2020;48.682;9.024;2023-03-12T05:40:42;4.10;;;3.70;;
4011;SDS011;2020;48.682;9.024;2023-03-12T05:43:07;5.63;;;4.70;;
4011;SDS011;2020;48.682;9.024;2023-03-12T05:45:32;5.90;;;4.13;;
4011;SDS011;2020;48.682;9.024;2023-03-12T05:47:58;7.43;;;4.37;;
4011;SDS011;2020;48.682;9.024;2023-03-12T05:50:23;5.50;;;4.00;;
4011;SDS011;2020;48.682;9.024;2023-03-12T05:52:49;4.63;;;4.20;;
4011;SDS011;2020;48.682;9.024;2023-03-12T05:55:16;3.87;;;3.77;;
4011;SDS011;2020;48.682;9.024;2023-03-12T05:57:41;3.43;;;3.20;;
4011;SDS011;2020;48.682;9.024;2023-03-12T06:00:06;4.10;;;3.90;;
4011;SDS011;2020;48.682;9.024;2023-03-12T06:02:33;4.37;;;3.83;;
4011;SDS011;2020;48.682;9.024;2023-03-12T06:04:58;4.70;;;4.30;;
4011;SDS011;2020;48.682;9.024;2023-03-12T06:07:24;3.70;;;3.23;;
4011;SDS011;2020;48.682;9.024;2023-03-12T06:09:49;5.50;;;4.60;;
4011;SDS011;2020;48.682;9.024;2023-03-12T06:12:14;5.07;;;4.57;;
4011;SDS011;2020;48.682;9.024;2023-03-12T06:14:39;3.27;;;3.07;;
4011;SDS011;2020;48.682;9.024;2023-03-12T06:17:05;3.33;;;3.13;;
4011;SDS011;2020;48.682;9.024;2023-03-12T06:19:30;3.53;;;3.37;;
4011;SDS011;2020;48.682;9.024;2023-03-12T06:21:55;3.57;;;3.37;;
4011;SDS011;2020;48.682;9.024;2023-03-12T06:24:21;3.60;;;3.40;;
4011;SDS011;2020;48.682;9.024;2023-03-12T06:26:46;3.63;;;3.43;;
4011;SDS011;2020;48.682;9.024;2023-03-12T06:29:11;4.57;;;4.27;;
4011;SDS011;2020;48.682;9.024;2023-03-12T06:31:37;3.40;;;3.03;;
4011;SDS011;2020;48.682;9.024;2023-03-12T06:34:03;8.23;;;4.10;;
4011;SDS011;2020;48.682;9.024;2023-03-12T06:36:29;7.00;;;5.03;;
4011;SDS011;2020;48.682;9.024;2023-03-12T06:38:54;9.07;;;3.73;;
4011;SDS011;2020;48.682;9.024;2023-03-12T06:41:19;4.67;;;4.27;;
4011;SDS011;2020;48.682;9.024;2023-03-12T06:43:44;3.67;;;3.37;;
4011;SDS011;2020;48.682;9.024;2023-03-12T06:46:11;3.93;;;3.73;;
4011;SDS011;2020;48.682;9.024;2023-03-12T06:48:38;4.20;;;3.90;;
4011;SDS011;2020;48.682;9.024;2023-03-12T06:51:06;4.03;;;3.90;;
4011;SDS011;2020;48.682;9.024;2023-03-12T06:53:32;3.70;;;3.50;;
4011;SDS011;2020;48.682;9.024;2023-03-12T06:55:58;3.83;;;3.57;;
4011;SDS011;2020;48.682;9.024;2023-03-12T06:58:23;6.17;;;3.50;;
4011;SDS011;2020;48.682;9.024;2023-03-12T07:00:49;4.80;;;4.40;;
4011;SDS011;2020;48.682;9.024;2023-03-12T07:03:14;4.53;;;4.30;;
4011;SDS011;2020;48.682;9.024;2023-03-12T07:05:42;5.20;;;4.80;;
4011;SDS011;2020;48.682;9.024;2023-03-12T07:08:08;6.00;;;5.50;;
4011;SDS011;2020;48.682;9.024;2023-03-12T07:10:34;4.63;;;4.33;;
4011;SDS011;2020;48.682;9.024;2023-03-12T07:12:59;4.40;;;4.20;;
4011;SDS011;2020;48.682;9.024;2023-03-12T07:15:24;4.70;;;4.37;;
4011;SDS011;2020;48.682;9.024;2023-03-12T07:17:50;5.10;;;4.67;;
4011;SDS011;2020;48.682;9.024;2023-03-12T07:20:15;3.70;;;3.60;;
4011;SDS011;2020;48.682;9.024;2023-03-12T07:22:41;4.20;;;4.00;;
4011;SDS011;2020;48.682;9.024;2023-03-12T07:25:07;8.43;;;4.90;;
4011;SDS011;2020;48.682;9.024;2023-03-12T07:27:33;11.60;;;7.03;;
4011;SDS011;2020;48.682;9.024;2023-03-12T07:29:59;4.90;;;4.50;;
4011;SDS011;2020;48.682;9.024;2023-03-12T07:32:24;4.70;;;4.30;;
4011;SDS011;2020;48.682;9.024;2023-03-12T07:34:49;4.57;;;4.20;;
4011;SDS011;2020;48.682;9.024;2023-03-12T07:37:14;4.27;;;4.03;;
4011;SDS011;2020;48.682;9.024;2023-03-12T07:39:40;4.03;;;3.73;;
4011;SDS011;2020;48.682;9.024;2023-03-12T07:42:05;4.33;;;3.30;;
4011;SDS011;2020;48.682;9.024;2023-03-12T07:44:30;3.80;;;3.60;;
4011;SDS011;2020;48.682;9.024;2023-03-12T07:46:58;5.13;;;4.83;;
4011;SDS011;2020;48.682;9.024;2023-03-12T07:49:23;5.20;;;4.27;;
4011;SDS011;2020;48.682;9.024;2023-03-12T07:51:50;5.10;;;4.60;;
4011;SDS011;2020;48.682;9.024;2023-03-12T07:54:15;5.53;;;4.40;;
4011;SDS011;2020;48.682;9.024;2023-03-12T07:56:40;5.93;;;5.40;;
4011;SDS011;2020;48.682;9.024;2023-03-12T07:59:06;5.27;;;4.87;;
4011;SDS011;2020;48.682;9.024;2023-03-12T08:01:31;5.20;;;4.80;;
4011;SDS011;2020;48.682;9.024;2023-03-12T08:03:57;5.90;;;5.40;;
4011;SDS011;2020;48.682;9.024;2023-03-12T08:06:23;5.80;;;5.30;;
4011;SDS011;2020;48.682;9.024;2023-03-12T08:08:48;5.93;;;5.00;;
4011;SDS011;2020;48.682;9.024;2023-03-12T08:11:14;5.37;;;4.97;;
4011;SDS011;2020;48.682;9.024;2023-03-12T08:13:39;5.70;;;5.23;;
4011;SDS011;2020;48.682;9.024;2023-03-12T08:16:04;5.80;;;5.30;;
4011;SDS011;2020;48.682;9.024;2023-03-12T08:18:30;5.20;;;4.90;;
4011;SDS011;2020;48.682;9.024;2023-03-12T08:20:55;6.73;;;5.43;;
4011;SDS011;2020;48.682;9.024;2023-03-12T08:23:21;6.13;;;5.10;;
4011;SDS011;2020;48.682;9.024;2023-03-12T08:25:46;6.17;;;4.93;;
4011;SDS011;2020;48.682;9.024;2023-03-12T08:28:13;5.37;;;5.07;;
4011;SDS011;2020;48.682;9.024;2023-03-12T08:30:43;6.67;;;6.00;;
4011;SDS011;2020;48.682;9.024;2023-03-12T08:33:12;9.27;;;6.67;;
4011;SDS011;2020;48.682;9.024;2023-03-12T08:35:37;6.30;;;5.80;;
4011;SDS011;2020;48.682;9.024;2023-03-12T08:38:03;5.83;;;5.40;;
4011;SDS011;2020;48.682;9.024;2023-03-12T08:40:28;9.70;;;6.77;;
4011;SDS011;2020;48.682;9.024;2023-03-12T08:42:54;7.87;;;7.00;;
4011;SDS011;2020;48.682;9.024;2023-03-12T08:45:19;10.30;;;8.23;;
4011;SDS011;2020;48.682;9.024;2023-03-12T08:47:44;7.43;;;6.60;;
4011;SDS011;2020;48.682;9.024;2023-03-12T08:50:10;6.97;;;6.37;;
4011;SDS011;2020;48.682;9.024;2023-03-12T08:52:37;7.20;;;6.50;;
4011;SDS011;2020;48.682;9.024;2023-03-12T08:55:02;6.93;;;5.80;;
4011;SDS011;2020;48.682;9.024;2023-03-12T08:57:29;11.60;;;7.47;;
4011;SDS011;2020;48.682;9.024;2023-03-12T08:59:55;7.40;;;6.63;;
4011;SDS011;2020;48.682;9.024;2023-03-12T09:02:20;6.77;;;6.20;;
4011;SDS011;2020;48.682;9.024;2023-03-12T09:04:48;8.50;;;6.70;;
4011;SDS011;2020;48.682;9.024;2023-03-12T09:07:14;8.30;;;7.50;;
4011;SDS011;2020;48.682;9.024;2023-03-12T09:09:42;7.90;;;6.80;;
4011;SDS011;2020;48.682;9.024;2023-03-12T09:12:08;9.70;;;7.37;;
4011;SDS011;2020;48.682;9.024;2023-03-12T09:14:33;6.67;;;6.10;;
4011;SDS011;2020;48.682;9.024;2023-03-12T09:16:58;6.67;;;6.00;;
4011;SDS011;2020;48.682;9.024;2023-03-12T09:19:24;9.07;;;6.90;;
4011;SDS011;2020;48.682;9.024;2023-03-12T09:21:49;6.70;;;6.10;;
4011;SDS011;2020;48.682;9.024;2023-03-12T09:24:14;7.03;;;6.27;;
4011;SDS011;2020;48.682;9.024;2023-03-12T09:26:39;6.20;;;5.47;;
4011;SDS011;2020;48.682;9.024;2023-03-12T09:29:05;6.60;;;6.00;;
4011;SDS011;2020;48.682;9.024;2023-03-12T09:31:31;7.20;;;6.47;;
4011;SDS011;2020;48.682;9.024;2023-03-12T09:33:56;6.13;;;5.60;;
4011;SDS011;2020;48.682;9.024;2023-03-12T09:36:22;6.27;;;5.67;;
4011;SDS011;2020;48.682;9.024;2023-03-12T09:38:47;7.43;;;5.67;;
4011;SDS011;2020;48.682;9.024;2023-03-12T09:41:22;6.27;;;5.77;;
4011;SDS011;2020;48.682;9.024;2023-03-12T09:43:53;5.70;;;5.20;;
4011;SDS011;2020;48.682;9.024;2023-03-12T09:46:27;4.77;;;4.37;;
4011;SDS011;2020;48.682;9.024;2023-03-12T09:49:00;4.03;;;3.73;;
4011;SDS011;2020;48.682;9.024;2023-03-12T09:51:31;5.40;;;5.00;;
4011;SDS011;2020;48.682;9.024;2023-03-12T09:54:01;5.03;;;4.33;;
4011;SDS011;2020;48.682;9.024;2023-03-12T09:56:29;4.37;;;4.07;;
4011;SDS011;2020;48.682;9.024;2023-03-12T09:58:55;3.93;;;3.73;;
4011;SDS011;2020;48.682;9.024;2023-03-12T10:04:11;4.50;;;4.23;;
4011;SDS011;2020;48.682;9.024;2023-03-12T10:10:02;5.43;;;3.57;;
4011;SDS011;2020;48.682;9.024;2023-03-12T10:12:30;3.30;;;3.10;;
4011;SDS011;2020;48.682;9.024;2023-03-12T10:15:26;3.43;;;3.33;;
4011;SDS011;2020;48.682;9.024;2023-03-12T10:18:09;3.90;;;3.67;;
4011;SDS011;2020;48.682;9.024;2023-03-12T10:20:59;4.80;;;4.50;;
4011;SDS011;2020;48.682;9.024;2023-03-12T10:26:21;2.33;;;2.23;;
4011;SDS011;2020;48.682;9.024;2023-03-12T10:34:27;2.80;;;2.60;;
4011;SDS011;2020;48.682;9.024;2023-03-12T10:36:57;2.53;;;2.33;;
4011;SDS011;2020;48.682;9.024;2023-03-12T10:39:26;1.93;;;1.93;;
4011;SDS011;2020;48.682;9.024;2023-03-12T10:41:52;1.37;;;1.37;;
4011;SDS011;2020;48.682;9.024;2023-03-12T10:44:19;1.63;;;1.53;;
4011;SDS011;2020;48.682;9.024;2023-03-12T10:46:51;1.70;;;1.60;;
4011;SDS011;2020;48.682;9.024;2023-03-12T10:49:24;2.30;;;2.20;;
4011;SDS011;2020;48.682;9.024;2023-03-12T10:52:37;3.50;;;1.47;;
4011;SDS011;2020;48.682;9.024;2023-03-12T10:54:48;1.70;;;1.50;;
4011;SDS011;2020;48.682;9.024;2023-03-12T10:57:17;2.20;;;1.63;;
4011;SDS011;2020;48.682;9.024;2023-03-12T10:59:44;1.90;;;1.80;;
4011;SDS011;2020;48.682;9.024;2023-03-12T11:02:45;1.60;;;1.50;;
4011;SDS011;2020;48.682;9.024;2023-03-12T11:05:18;0.70;;;0.70;;
4011;SDS011;2020;48.682;9.024;2023-03-12T11:07:49;0.70;;;0.70;;
4011;SDS011;2020;48.682;9.024;2023-03-12T11:10:20;2.87;;;0.87;;
4011;SDS011;2020;48.682;9.024;2023-03-12T11:13:00;0.60;;;0.60;;
4011;SDS011;2020;48.682;9.024;2023-03-12T11:15:40;0.80;;;0.80;;
4011;SDS011;2020;48.682;9.024;2023-03-12T11:21:12;1.23;;;0.80;;
4011;SDS011;2020;48.682;9.024;2023-03-12T11:23:39;2.50;;;0.70;;
4011;SDS011;2020;48.682;9.024;2023-03-12T11:26:13;1.77;;;0.97;;
4011;SDS011;2020;48.682;9.024;2023-03-12T11:28:43;1.40;;;1.30;;
4011;SDS011;2020;48.682;9.024;2023-03-12T11:31:18;0.60;;;0.60;;
4011;SDS011;2020;48.682;9.024;2023-03-12T11:33:49;0.70;;;0.70;;
4011;SDS011;2020;48.682;9.024;2023-03-12T11:36:20;0.80;;;0.80;;
4011;SDS011;2020;48.682;9.024;2023-03-12T11:39:06;0.60;;;0.60;;
4011;SDS011;2020;48.682;9.024;2023-03-12T11:41:54;1.30;;;1.20;;
4011;SDS011;2020;48.682;9.024;2023-03-12T11:44:42;2.63;;;1.13;;
4011;SDS011;2020;48.682;9.024;2023-03-12T11:50:00;1.27;;;0.80;;
4011;SDS011;2020;48.682;9.024;2023-03-12T12:03:53;2.83;;;1.03;;
4011;SDS011;2020;48.682;9.024;2023-03-12T12:06:16;2.10;;;1.00;;
4011;SDS011;2020;48.682;9.024;2023-03-12T12:11:27;1.60;;;1.50;;
4011;SDS011;2020;48.682;9.024;2023-03-12T12:14:19;3.10;;;1.30;;
4011;SDS011;2020;48.682;9.024;2023-03-12T12:19:41;2.40;;;1.00;;
4011;SDS011;2020;48.682;9.024;2023-03-12T12:22:22;2.50;;;1.03;;
4011;SDS011;2020;48.682;9.024;2023-03-12T12:30:15;3.17;;;1.27;;
4011;SDS011;2020;48.682;9.024;2023-03-12T12:35:39;1.53;;;1.43;;
4011;SDS011;2020;48.682;9.024;2023-03-12T12:40:48;2.00;;;1.50;;
4011;SDS011;2020;48.682;9.024;2023-03-12T12:46:00;1.90;;;1.00;;
4011;SDS011;2020;48.682;9.024;2023-03-12T12:48:34;1.17;;;1.00;;
4011;SDS011;2020;48.682;9.024;2023-03-12T12:51:02;3.00;;;1.40;;
4011;SDS011;2020;48.682;9.024;2023-03-12T12:53:31;1.47;;;1.20;;
4011;SDS011;2020;48.682;9.024;2023-03-12T12:56:21;1.33;;;1.33;;
4011;SDS011;2020;48.682;9.024;2023-03-12T13:01:57;1.43;;;1.03;;
4011;SDS011;2020;48.682;9.024;2023-03-12T13:04:35;5.60;;;4.10;;
4011;SDS011;2020;48.682;9.024;2023-03-12T13:07:04;2.57;;;1.20;;
4011;SDS011;2020;48.682;9.024;2023-03-12T13:09:49;1.13;;;0.90;;
4011;SDS011;2020;48.682;9.024;2023-03-12T13:14:55;1.57;;;1.47;;
4011;SDS011;2020;48.682;9.024;2023-03-12T13:17:31;2.70;;;1.30;;
4011;SDS011;2020;48.682;9.024;2023-03-12T13:20:00;2.07;;;1.13;;
4011;SDS011;2020;48.682;9.024;2023-03-12T13:31:00;1.13;;;0.77;;
4011;SDS011;2020;48.682;9.024;2023-03-12T13:33:46;1.50;;;1.20;;
4011;SDS011;2020;48.682;9.024;2023-03-12T13:41:34;2.10;;;1.30;;
4011;SDS011;2020;48.682;9.024;2023-03-12T13:50:11;1.27;;;0.90;;
4011;SDS011;2020;48.682;9.024;2023-03-12T13:52:40;1.60;;;0.80;;
4011;SDS011;2020;48.682;9.024;2023-03-12T13:57:38;2.50;;;2.40;;
4011;SDS011;2020;48.682;9.024;2023-03-12T14:03:15;1.20;;;1.20;;
4011;SDS011;2020;48.682;9.024;2023-03-12T14:11:02;2.13;;;0.93;;
4011;SDS011;2020;48.682;9.024;2023-03-12T14:19:19;2.60;;;0.63;;
4011;SDS011;2020;48.682;9.024;2023-03-12T14:21:49;0.80;;;0.80;;
4011;SDS011;2020;48.682;9.024;2023-03-12T14:24:23;2.40;;;1.30;;
4011;SDS011;2020;48.682;9.024;2023-03-12T14:26:55;2.10;;;0.83;;
4011;SDS011;2020;48.682;9.024;2023-03-12T14:29:26;3.03;;;1.00;;
4011;SDS011;2020;48.682;9.024;2023-03-12T14:31:53;1.47;;;0.87;;
4011;SDS011;2020;48.682;9.024;2023-03-12T14:34:26;1.30;;;1.20;;
4011;SDS011;2020;48.682;9.024;2023-03-12T14:39:56;1.60;;;0.90;;
4011;SDS011;2020;48.682;9.024;2023-03-12T14:42:32;3.70;;;1.13;;
4011;SDS011;2020;48.682;9.024;2023-03-12T14:45:19;1.00;;;0.83;;
4011;SDS011;2020;48.682;9.024;2023-03-12T14:47:48;2.87;;;0.93;;
4011;SDS011;2020;48.682;9.024;2023-03-12T14:50:21;1.30;;;1.20;;
4011;SDS011;2020;48.682;9.024;2023-03-12T14:52:55;1.27;;;1.00;;
4011;SDS011;2020;48.682;9.024;2023-03-12T14:55:38;3.33;;;1.30;;
4011;SDS011;2020;48.682;9.024;2023-03-12T14:58:04;4.83;;;1.50;;
4011;SDS011;2020;48.682;9.024;2023-03-12T15:00:38;5.37;;;1.87;;
4011;SDS011;2020;48.682;9.024;2023-03-12T15:03:04;4.40;;;1.20;;
4011;SDS011;2020;48.682;9.024;2023-03-12T15:05:42;2.97;;;1.33;;
4011;SDS011;2020;48.682;9.024;2023-03-12T15:08:09;1.80;;;1.40;;
4011;SDS011;2020;48.682;9.024;2023-03-12T15:10:36;7.57;;;1.40;;
4011;SDS011;2020;48.682;9.024;2023-03-12T15:13:03;2.83;;;1.30;;
4011;SDS011;2020;48.682;9.024;2023-03-12T15:15:38;1.73;;;1.10;;
4011;SDS011;2020;48.682;9.024;2023-03-12T15:18:07;1.90;;;1.07;;
4011;SDS011;2020;48.682;9.024;2023-03-12T15:20:37;4.83;;;1.53;;
4011;SDS011;2020;48.682;9.024;2023-03-12T15:23:03;3.20;;;1.70;;
4011;SDS011;2020;48.682;9.024;2023-03-12T15:25:31;4.10;;;1.20;;
4011;SDS011;2020;48.682;9.024;2023-03-12T15:28:05;2.03;;;1.50;;
4011;SDS011;2020;48.682;9.024;2023-03-12T15:31:07;1.90;;;1.80;;
4011;SDS011;2020;48.682;9.024;2023-03-12T15:33:38;5.10;;;1.47;;
4011;SDS011;2020;48.682;9.024;2023-03-12T15:38:47;4.63;;;2.40;;
4011;SDS011;2020;48.682;9.024;2023-03-12T15:41:26;2.47;;;1.23;;
4011;SDS011;2020;48.682;9.024;2023-03-12T15:43:57;2.50;;;1.60;;
4011;SDS011;2020;48.682;9.024;2023-03-12T15:46:23;4.57;;;1.27;;
4011;SDS011;2020;48.682;9.024;2023-03-12T15:48:51;5.23;;;1.73;;
4011;SDS011;2020;48.682;9.024;2023-03-12T15:51:29;2.17;;;1.73;;
4011;SDS011;2020;48.682;9.024;2023-03-12T15:54:03;2.37;;;1.10;;
4011;SDS011;2020;48.682;9.024;2023-03-12T15:56:44;4.17;;;1.20;;
4011;SDS011;2020;48.682;9.024;2023-03-12T16:01:47;5.13;;;2.10;;
4011;SDS011;2020;48.682;9.024;2023-03-12T16:04:14;2.70;;;1.67;;
4011;SDS011;2020;48.682;9.024;2023-03-12T16:06:40;3.60;;;2.50;;
4011;SDS011;2020;48.682;9.024;2023-03-12T16:09:08;2.10;;;1.97;;
4011;SDS011;2020;48.682;9.024;2023-03-12T16:11:38;1.83;;;1.40;;
4011;SDS011;2020;48.682;9.024;2023-03-12T16:14:04;3.80;;;1.40;;
4011;SDS011;2020;48.682;9.024;2023-03-12T16:16:37;3.17;;;1.70;;
4011;SDS011;2020;48.682;9.024;2023-03-12T16:19:04;4.80;;;1.80;;
4011;SDS011;2020;48.682;9.024;2023-03-12T16:21:35;2.90;;;1.20;;
4011;SDS011;2020;48.682;9.024;2023-03-12T16:24:00;3.03;;;1.60;;
4011;SDS011;2020;48.682;9.024;2023-03-12T16:26:55;3.93;;;1.93;;
4011;SDS011;2020;48.682;9.024;2023-03-12T16:29:24;5.80;;;2.00;;
4011;SDS011;2020;48.682;9.024;2023-03-12T16:31:56;3.33;;;1.37;;
4011;SDS011;2020;48.682;9.024;2023-03-12T16:34:22;1.80;;;1.23;;
4011;SDS011;2020;48.682;9.024;2023-03-12T16:36:47;6.60;;;1.27;;
4011;SDS011;2020;48.682;9.024;2023-03-12T16:39:12;3.60;;;1.53;;
4011;SDS011;2020;48.682;9.024;2023-03-12T16:41:38;5.80;;;1.77;;
4011;SDS011;2020;48.682;9.024;2023-03-12T16:44:04;3.30;;;1.93;;
4011;SDS011;2020;48.682;9.024;2023-03-12T16:46:32;3.07;;;1.47;;
4011;SDS011;2020;48.682;9.024;2023-03-12T16:48:58;3.90;;;1.47;;
4011;SDS011;2020;48.682;9.024;2023-03-12T16:51:24;2.27;;;1.33;;
4011;SDS011;2020;48.682;9.024;2023-03-12T16:53:52;3.13;;;1.60;;
4011;SDS011;2020;48.682;9.024;2023-03-12T16:56:18;3.33;;;1.90;;
4011;SDS011;2020;48.682;9.024;2023-03-12T16:58:45;3.17;;;1.30;;
4011;SDS011;2020;48.682;9.024;2023-03-12T17:01:12;1.87;;;1.53;;
4011;SDS011;2020;48.682;9.024;2023-03-12T17:03:39;3.23;;;1.70;;
4011;SDS011;2020;48.682;9.024;2023-03-12T17:06:28;3.80;;;1.60;;